sensor_id;sensor_type;location;lat;lon;timestamp;temperature;humidity
21772;DHT22;11047;47.904;8.110;2024-03-23T00:54:01;8.50;99.90
21772;DHT22;11047;47.904;8.110;2024-03-23T00:56:28;8.60;99.90
21772;DHT22;11047;47.904;8.110;2024-03-23T00:58:54;8.70;99.90
21772;DHT22;11047;47.904;8.110;2024-03-23T01:01:21;8.80;99.90
21772;DHT22;11047;47.904;8.110;2024-03-23T01:03:47;8.80;99.90
21772;DHT22;11047;47.904;8.110;2024-03-23T01:06:14;9.00;99.90
21772;DHT22;11047;47.904;8.110;2024-03-23T01:08:40;9.10;99.90
21772;DHT22;11047;47.904;8.110;2024-03-23T01:11:09;9.40;99.90
21772;DHT22;11047;47.904;8.110;2024-03-23T01:13:35;9.50;99.90
21772;DHT22;11047;47.904;8.110;2024-03-23T01:16:01;9.60;99.90
21772;DHT22;11047;47.904;8.110;2024-03-23T01:18:27;9.70;99.90
21772;DHT22;11047;47.904;8.110;2024-03-23T01:20:54;9.90;99.90
21772;DHT22;11047;47.904;8.110;2024-03-23T01:23:20;9.90;99.90
21772;DHT22;11047;47.904;8.110;2024-03-23T01:25:52;9.90;99.90
21772;DHT22;11047;47.904;8.110;2024-03-23T01:28:20;10.00;99.90
21772;DHT22;11047;47.904;8.110;2024-03-23T01:30:47;10.10;99.90
21772;DHT22;11047;47.904;8.110;2024-03-23T01:33:13;10.20;99.90
21772;DHT22;11047;47.904;8.110;2024-03-23T01:35:39;10.20;99.90
21772;DHT22;11047;47.904;8.110;2024-03-23T01:38:06;10.20;99.90
21772;DHT22;11047;47.904;8.110;2024-03-23T01:40:33;10.30;99.90
21772;DHT22;11047;47.904;8.110;2024-03-23T01:43:02;10.30;99.90
21772;DHT22;11047;47.904;8.110;2024-03-23T01:45:31;10.40;99.90
21772;DHT22;11047;47.904;8.110;2024-03-23T01:47:57;10.40;99.90
21772;DHT22;11047;47.904;8.110;2024-03-23T01:50:24;10.50;99.90
21772;DHT22;11047;47.904;8.110;2024-03-23T01:52:51;10.60;99.90
21772;DHT22;11047;47.904;8.110;2024-03-23T01:55:18;10.60;99.90
21772;DHT22;11047;47.904;8.110;2024-03-23T01:57:43;10.70;99.90
21772;DHT22;11047;47.904;8.110;2024-03-23T02:00:11;10.70;99.90
21772;DHT22;11047;47.904;8.110;2024-03-23T02:02:42;10.70;99.90
21772;DHT22;11047;47.904;8.110;2024-03-23T02:05:10;10.70;99.90
21772;DHT22;11047;47.904;8.110;2024-03-23T02:07:37;10.70;99.90
21772;DHT22;11047;47.904;8.110;2024-03-23T02:10:06;10.70;99.90
21772;DHT22;11047;47.904;8.110;2024-03-23T02:12:32;10.70;99.90
21772;DHT22;11047;47.904;8.110;2024-03-23T02:14:58;10.70;99.90
21772;DHT22;11047;47.904;8.110;2024-03-23T02:17:24;10.70;99.90
21772;DHT22;11047;47.904;8.110;2024-03-23T02:19:53;10.80;99.90
21772;DHT22;11047;47.904;8.110;2024-03-23T02:22:18;10.80;99.90
21772;DHT22;11047;47.904;8.110;2024-03-23T02:24:47;10.80;99.90
21772;DHT22;11047;47.904;8.110;2024-03-23T02:27:13;10.90;99.90
21772;DHT22;11047;47.904;8.110;2024-03-23T02:29:40;11.00;99.90
21772;DHT22;11047;47.904;8.110;2024-03-23T02:32:06;11.00;99.90
21772;DHT22;11047;47.904;8.110;2024-03-23T02:34:34;11.00;99.90
21772;DHT22;11047;47.904;8.110;2024-03-23T02:37:00;11.00;99.90
21772;DHT22;11047;47.904;8.110;2024-03-23T02:39:27;10.90;99.90
21772;DHT22;11047;47.904;8.110;2024-03-23T02:41:54;10.90;99.90
21772;DHT22;11047;47.904;8.110;2024-03-23T02:44:21;10.90;99.90
21772;DHT22;11047;47.904;8.110;2024-03-23T02:46:47;10.90;99.90
21772;DHT22;11047;47.904;8.110;2024-03-23T02:49:14;10.80;99.90
21772;DHT22;11047;47.904;8.110;2024-03-23T02:51:40;10.80;99.90
21772;DHT22;11047;47.904;8.110;2024-03-23T02:54:07;10.80;99.90
21772;DHT22;11047;47.904;8.110;2024-03-23T02:56:33;10.80;99.90
21772;DHT22;11047;47.904;8.110;2024-03-23T02:59:02;10.80;99.90
21772;DHT22;11047;47.904;8.110;2024-03-23T03:01:28;10.80;99.90
21772;DHT22;11047;47.904;8.110;2024-03-23T03:03:54;10.80;99.90
21772;DHT22;11047;47.904;8.110;2024-03-23T03:06:24;10.80;99.90
21772;DHT22;11047;47.904;8.110;2024-03-23T03:08:51;10.80;99.90
21772;DHT22;11047;47.904;8.110;2024-03-23T03:11:16;10.70;99.90
21772;DHT22;11047;47.904;8.110;2024-03-23T03:13:43;10.70;99.90
21772;DHT22;11047;47.904;8.110;2024-03-23T03:16:11;10.70;99.90
21772;DHT22;11047;47.904;8.110;2024-03-23T03:18:38;10.70;99.90
21772;DHT22;11047;47.904;8.110;2024-03-23T03:21:05;10.60;99.90
21772;DHT22;11047;47.904;8.110;2024-03-23T03:23:36;10.60;99.90
21772;DHT22;11047;47.904;8.110;2024-03-23T03:26:02;10.60;99.90
21772;DHT22;11047;47.904;8.110;2024-03-23T03:28:29;10.60;99.90
21772;DHT22;11047;47.904;8.110;2024-03-23T03:30:56;10.60;99.90
21772;DHT22;11047;47.904;8.110;2024-03-23T03:33:24;10.70;99.90
21772;DHT22;11047;47.904;8.110;2024-03-23T03:35:50;10.60;99.90
21772;DHT22;11047;47.904;8.110;2024-03-23T03:38:18;10.60;99.90
21772;DHT22;11047;47.904;8.110;2024-03-23T03:40:44;10.60;99.90
21772;DHT22;11047;47.904;8.110;2024-03-23T03:43:11;10.50;99.90
21772;DHT22;11047;47.904;8.110;2024-03-23T03:45:37;10.50;99.90
21772;DHT22;11047;47.904;8.110;2024-03-23T03:48:05;10.50;99.90
21772;DHT22;11047;47.904;8.110;2024-03-23T03:50:32;10.60;99.90
21772;DHT22;11047;47.904;8.110;2024-03-23T03:52:59;10.60;99.90
21772;DHT22;11047;47.904;8.110;2024-03-23T03:55:25;10.50;99.90
21772;DHT22;11047;47.904;8.110;2024-03-23T03:57:52;10.50;99.90
21772;DHT22;11047;47.904;8.110;2024-03-23T04:00:18;10.60;99.90
21772;DHT22;11047;47.904;8.110;2024-03-23T04:02:45;10.70;99.90
21772;DHT22;11047;47.904;8.110;2024-03-23T04:05:11;10.60;99.90
21772;DHT22;11047;47.904;8.110;2024-03-23T04:07:39;10.60;99.90
21772;DHT22;11047;47.904;8.110;2024-03-23T04:10:06;10.60;99.90
21772;DHT22;11047;47.904;8.110;2024-03-23T04:12:33;10.60;99.90
21772;DHT22;11047;47.904;8.110;2024-03-23T04:14:59;10.60;99.90
21772;DHT22;11047;47.904;8.110;2024-03-23T04:17:29;10.60;99.90
21772;DHT22;11047;47.904;8.110;2024-03-23T04:19:57;10.50;99.90
21772;DHT22;11047;47.904;8.110;2024-03-23T04:22:24;10.50;99.90
21772;DHT22;11047;47.904;8.110;2024-03-23T04:24:53;10.50;99.90
21772;DHT22;11047;47.904;8.110;2024-03-23T04:27:20;10.50;99.90
21772;DHT22;11047;47.904;8.110;2024-03-23T04:29:47;10.50;99.90
21772;DHT22;11047;47.904;8.110;2024-03-23T04:32:14;10.40;99.90
21772;DHT22;11047;47.904;8.110;2024-03-23T04:34:41;10.40;99.90
21772;DHT22;11047;47.904;8.110;2024-03-23T04:37:07;10.40;99.90
21772;DHT22;11047;47.904;8.110;2024-03-23T04:39:34;10.20;99.90
21772;DHT22;11047;47.904;8.110;2024-03-23T04:42:02;10.00;99.90
21772;DHT22;11047;47.904;8.110;2024-03-23T04:44:29;9.80;99.90
21772;DHT22;11047;47.904;8.110;2024-03-23T04:46:57;9.70;99.90
21772;DHT22;11047;47.904;8.110;2024-03-23T04:49:24;9.70;99.90
21772;DHT22;11047;47.904;8.110;2024-03-23T04:51:50;9.60;99.90
21772;DHT22;11047;47.904;8.110;2024-03-23T04:54:17;9.50;99.90
21772;DHT22;11047;47.904;8.110;2024-03-23T04:56:45;9.40;99.90
21772;DHT22;11047;47.904;8.110;2024-03-23T04:59:13;9.40;99.90
21772;DHT22;11047;47.904;8.110;2024-03-23T05:01:39;9.30;99.90
21772;DHT22;11047;47.904;8.110;2024-03-23T05:04:07;9.40;99.90
21772;DHT22;11047;47.904;8.110;2024-03-23T05:06:33;9.40;99.90
21772;DHT22;11047;47.904;8.110;2024-03-23T05:09:00;9.30;99.90
21772;DHT22;11047;47.904;8.110;2024-03-23T05:11:28;9.20;99.90
21772;DHT22;11047;47.904;8.110;2024-03-23T05:13:55;9.30;99.90
21772;DHT22;11047;47.904;8.110;2024-03-23T05:16:23;9.20;99.90
21772;DHT22;11047;47.904;8.110;2024-03-23T05:18:49;9.20;99.90
21772;DHT22;11047;47.904;8.110;2024-03-23T05:21:16;9.10;99.90
21772;DHT22;11047;47.904;8.110;2024-03-23T05:23:42;9.10;99.90
21772;DHT22;11047;47.904;8.110;2024-03-23T05:26:10;9.00;99.90
21772;DHT22;11047;47.904;8.110;2024-03-23T05:28:35;9.00;99.90
21772;DHT22;11047;47.904;8.110;2024-03-23T05:31:03;9.00;99.90
21772;DHT22;11047;47.904;8.110;2024-03-23T05:33:30;8.90;99.90
21772;DHT22;11047;47.904;8.110;2024-03-23T05:35:58;8.90;99.90
21772;DHT22;11047;47.904;8.110;2024-03-23T05:38:24;8.80;99.90
21772;DHT22;11047;47.904;8.110;2024-03-23T05:40:54;8.80;99.90
21772;DHT22;11047;47.904;8.110;2024-03-23T05:43:20;8.80;99.90
21772;DHT22;11047;47.904;8.110;2024-03-23T05:45:53;8.80;99.90
21772;DHT22;11047;47.904;8.110;2024-03-23T05:48:19;9.00;99.90
21772;DHT22;11047;47.904;8.110;2024-03-23T05:50:47;8.70;99.90
21772;DHT22;11047;47.904;8.110;2024-03-23T05:53:14;8.60;99.90
21772;DHT22;11047;47.904;8.110;2024-03-23T05:55:41;8.60;99.90
21772;DHT22;11047;47.904;8.110;2024-03-23T05:58:07;8.50;99.90
21772;DHT22;11047;47.904;8.110;2024-03-23T06:00:34;8.60;99.90
21772;DHT22;11047;47.904;8.110;2024-03-23T06:03:00;8.50;99.90
21772;DHT22;11047;47.904;8.110;2024-03-23T06:05:27;8.30;99.90
21772;DHT22;11047;47.904;8.110;2024-03-23T06:07:54;8.40;99.90
21772;DHT22;11047;47.904;8.110;2024-03-23T06:10:21;8.40;99.90
21772;DHT22;11047;47.904;8.110;2024-03-23T06:12:47;8.30;99.90
21772;DHT22;11047;47.904;8.110;2024-03-23T06:15:14;8.20;99.90
21772;DHT22;11047;47.904;8.110;2024-03-23T06:17:40;8.10;99.90
21772;DHT22;11047;47.904;8.110;2024-03-23T06:20:08;8.10;99.90
21772;DHT22;11047;47.904;8.110;2024-03-23T06:22:35;8.00;99.90
21772;DHT22;11047;47.904;8.110;2024-03-23T06:25:04;8.00;99.90
21772;DHT22;11047;47.904;8.110;2024-03-23T06:27:30;7.90;99.90
21772;DHT22;11047;47.904;8.110;2024-03-23T06:29:57;7.90;99.90
21772;DHT22;11047;47.904;8.110;2024-03-23T06:32:24;7.90;99.90
21772;DHT22;11047;47.904;8.110;2024-03-23T06:34:50;7.80;99.90
21772;DHT22;11047;47.904;8.110;2024-03-23T06:37:17;7.80;99.90
21772;DHT22;11047;47.904;8.110;2024-03-23T06:39:43;7.70;99.90
21772;DHT22;11047;47.904;8.110;2024-03-23T06:42:13;7.60;99.90
21772;DHT22;11047;47.904;8.110;2024-03-23T06:44:39;6.90;99.90
21772;DHT22;11047;47.904;8.110;2024-03-23T06:47:06;6.60;99.90
21772;DHT22;11047;47.904;8.110;2024-03-23T06:49:32;6.50;99.90
21772;DHT22;11047;47.904;8.110;2024-03-23T06:51:59;6.40;99.90
21772;DHT22;11047;47.904;8.110;2024-03-23T06:54:24;6.20;99.90
21772;DHT22;11047;47.904;8.110;2024-03-23T06:56:51;6.00;99.90
21772;DHT22;11047;47.904;8.110;2024-03-23T06:59:18;5.80;99.90
21772;DHT22;11047;47.904;8.110;2024-03-23T07:01:45;5.80;99.90
21772;DHT22;11047;47.904;8.110;2024-03-23T07:04:11;5.80;99.90
21772;DHT22;11047;47.904;8.110;2024-03-23T07:06:42;5.80;99.90
21772;DHT22;11047;47.904;8.110;2024-03-23T07:09:08;5.70;99.90
21772;DHT22;11047;47.904;8.110;2024-03-23T07:11:35;5.60;99.90
21772;DHT22;11047;47.904;8.110;2024-03-23T07:14:01;5.50;99.90
21772;DHT22;11047;47.904;8.110;2024-03-23T07:16:30;5.50;99.90
21772;DHT22;11047;47.904;8.110;2024-03-23T07:18:57;5.40;99.90
21772;DHT22;11047;47.904;8.110;2024-03-23T07:21:24;5.30;99.90
21772;DHT22;11047;47.904;8.110;2024-03-23T07:23:50;5.30;99.90
21772;DHT22;11047;47.904;8.110;2024-03-23T07:26:16;5.20;99.90
21772;DHT22;11047;47.904;8.110;2024-03-23T07:28:43;5.20;99.90
21772;DHT22;11047;47.904;8.110;2024-03-23T07:31:12;5.20;99.90
21772;DHT22;11047;47.904;8.110;2024-03-23T07:33:44;5.20;99.90
21772;DHT22;11047;47.904;8.110;2024-03-23T07:36:11;5.20;99.90
21772;DHT22;11047;47.904;8.110;2024-03-23T07:38:37;5.10;99.90
21772;DHT22;11047;47.904;8.110;2024-03-23T07:41:07;5.10;99.90
21772;DHT22;11047;47.904;8.110;2024-03-23T07:43:35;5.00;99.90
21772;DHT22;11047;47.904;8.110;2024-03-23T07:46:01;5.00;99.90
21772;DHT22;11047;47.904;8.110;2024-03-23T07:48:29;5.00;99.90
21772;DHT22;11047;47.904;8.110;2024-03-23T07:51:01;5.00;99.90
21772;DHT22;11047;47.904;8.110;2024-03-23T07:53:28;4.90;99.90
21772;DHT22;11047;47.904;8.110;2024-03-23T07:55:57;5.00;99.90
21772;DHT22;11047;47.904;8.110;2024-03-23T07:58:25;4.90;99.90
21772;DHT22;11047;47.904;8.110;2024-03-23T08:00:50;4.90;99.90
21772;DHT22;11047;47.904;8.110;2024-03-23T08:03:17;4.80;99.90
21772;DHT22;11047;47.904;8.110;2024-03-23T08:05:43;4.80;99.90
21772;DHT22;11047;47.904;8.110;2024-03-23T08:08:11;4.70;99.90
21772;DHT22;11047;47.904;8.110;2024-03-23T08:10:37;4.60;99.90
21772;DHT22;11047;47.904;8.110;2024-03-23T08:13:13;4.70;99.90
21772;DHT22;11047;47.904;8.110;2024-03-23T08:15:39;4.60;99.90
21772;DHT22;11047;47.904;8.110;2024-03-23T08:18:06;4.70;99.90
21772;DHT22;11047;47.904;8.110;2024-03-23T08:20:32;4.70;99.90
21772;DHT22;11047;47.904;8.110;2024-03-23T08:22:59;4.80;99.90
21772;DHT22;11047;47.904;8.110;2024-03-23T08:25:26;4.70;99.90
21772;DHT22;11047;47.904;8.110;2024-03-23T08:27:53;4.60;99.90
21772;DHT22;11047;47.904;8.110;2024-03-23T08:30:19;4.60;99.90
21772;DHT22;11047;47.904;8.110;2024-03-23T08:32:45;4.60;99.90
21772;DHT22;11047;47.904;8.110;2024-03-23T08:35:11;4.50;99.90
21772;DHT22;11047;47.904;8.110;2024-03-23T08:37:38;4.50;99.90
21772;DHT22;11047;47.904;8.110;2024-03-23T08:40:05;4.50;99.90
21772;DHT22;11047;47.904;8.110;2024-03-23T08:42:35;4.50;99.90
21772;DHT22;11047;47.904;8.110;2024-03-23T08:45:01;4.60;99.90
21772;DHT22;11047;47.904;8.110;2024-03-23T08:47:28;5.00;99.90
21772;DHT22;11047;47.904;8.110;2024-03-23T08:49:53;5.50;99.90
21772;DHT22;11047;47.904;8.110;2024-03-23T08:52:20;5.60;99.90
21772;DHT22;11047;47.904;8.110;2024-03-23T08:54:48;6.10;99.90
21772;DHT22;11047;47.904;8.110;2024-03-23T08:57:15;6.90;99.90
21772;DHT22;11047;47.904;8.110;2024-03-23T08:59:42;7.10;99.90
21772;DHT22;11047;47.904;8.110;2024-03-23T09:02:09;7.40;99.90
21772;DHT22;11047;47.904;8.110;2024-03-23T09:04:35;6.90;99.90
21772;DHT22;11047;47.904;8.110;2024-03-23T09:07:02;6.50;99.90
21772;DHT22;11047;47.904;8.110;2024-03-23T09:09:28;6.50;99.90
21772;DHT22;11047;47.904;8.110;2024-03-23T09:11:55;6.50;99.90
21772;DHT22;11047;47.904;8.110;2024-03-23T09:14:22;6.10;99.90
21772;DHT22;11047;47.904;8.110;2024-03-23T09:16:51;6.00;99.90
21772;DHT22;11047;47.904;8.110;2024-03-23T09:19:17;6.60;99.90
21772;DHT22;11047;47.904;8.110;2024-03-23T09:21:44;5.70;99.90
21772;DHT22;11047;47.904;8.110;2024-03-23T09:24:10;5.50;99.90
21772;DHT22;11047;47.904;8.110;2024-03-23T09:26:37;5.50;99.90
21772;DHT22;11047;47.904;8.110;2024-03-23T09:29:03;5.50;99.90
21772;DHT22;11047;47.904;8.110;2024-03-23T09:31:30;5.40;99.90
21772;DHT22;11047;47.904;8.110;2024-03-23T09:33:58;5.50;99.90
21772;DHT22;11047;47.904;8.110;2024-03-23T09:36:25;5.40;99.90
21772;DHT22;11047;47.904;8.110;2024-03-23T09:38:51;5.50;99.90
21772;DHT22;11047;47.904;8.110;2024-03-23T09:41:18;5.60;99.90
21772;DHT22;11047;47.904;8.110;2024-03-23T09:43:43;5.50;99.90
21772;DHT22;11047;47.904;8.110;2024-03-23T09:46:11;5.80;99.90
21772;DHT22;11047;47.904;8.110;2024-03-23T09:48:37;6.20;99.90
21772;DHT22;11047;47.904;8.110;2024-03-23T09:51:06;6.60;99.90
21772;DHT22;11047;47.904;8.110;2024-03-23T09:53:34;6.60;99.90
21772;DHT22;11047;47.904;8.110;2024-03-23T09:56:01;6.40;99.90
21772;DHT22;11047;47.904;8.110;2024-03-23T09:58:28;6.40;99.90
21772;DHT22;11047;47.904;8.110;2024-03-23T10:00:55;6.50;99.90
21772;DHT22;11047;47.904;8.110;2024-03-23T10:03:21;6.80;99.90
21772;DHT22;11047;47.904;8.110;2024-03-23T10:06:01;7.40;99.90
21772;DHT22;11047;47.904;8.110;2024-03-23T10:08:29;7.80;99.90
21772;DHT22;11047;47.904;8.110;2024-03-23T10:11:12;8.10;99.90
21772;DHT22;11047;47.904;8.110;2024-03-23T10:13:41;8.30;99.90
21772;DHT22;11047;47.904;8.110;2024-03-23T10:16:08;8.20;99.90
21772;DHT22;11047;47.904;8.110;2024-03-23T10:18:37;8.10;99.90
21772;DHT22;11047;47.904;8.110;2024-03-23T10:21:09;7.80;99.90
21772;DHT22;11047;47.904;8.110;2024-03-23T10:23:39;7.70;99.90
21772;DHT22;11047;47.904;8.110;2024-03-23T10:26:14;7.50;99.90
21772;DHT22;11047;47.904;8.110;2024-03-23T10:28:54;7.10;99.90
21772;DHT22;11047;47.904;8.110;2024-03-23T10:31:22;6.90;99.90
21772;DHT22;11047;47.904;8.110;2024-03-23T10:33:49;6.80;99.90
21772;DHT22;11047;47.904;8.110;2024-03-23T10:36:19;6.70;99.90
21772;DHT22;11047;47.904;8.110;2024-03-23T10:38:48;6.60;99.90
21772;DHT22;11047;47.904;8.110;2024-03-23T10:41:16;6.50;99.90
21772;DHT22;11047;47.904;8.110;2024-03-23T10:43:43;6.50;99.90
21772;DHT22;11047;47.904;8.110;2024-03-23T10:46:11;6.50;99.90
21772;DHT22;11047;47.904;8.110;2024-03-23T10:48:37;6.40;99.90
21772;DHT22;11047;47.904;8.110;2024-03-23T10:51:06;6.20;99.90
21772;DHT22;11047;47.904;8.110;2024-03-23T10:53:34;6.00;99.90
21772;DHT22;11047;47.904;8.110;2024-03-23T10:56:05;6.00;99.90
21772;DHT22;11047;47.904;8.110;2024-03-23T10:58:32;6.10;99.90
21772;DHT22;11047;47.904;8.110;2024-03-23T11:01:02;6.00;99.90
21772;DHT22;11047;47.904;8.110;2024-03-23T11:03:33;5.90;99.90
21772;DHT22;11047;47.904;8.110;2024-03-23T11:06:01;6.00;99.90
21772;DHT22;11047;47.904;8.110;2024-03-23T11:08:35;6.10;99.90
21772;DHT22;11047;47.904;8.110;2024-03-23T11:11:17;5.90;99.90
21772;DHT22;11047;47.904;8.110;2024-03-23T11:13:44;5.40;99.90
21772;DHT22;11047;47.904;8.110;2024-03-23T11:16:22;4.90;99.90
21772;DHT22;11047;47.904;8.110;2024-03-23T11:18:49;4.60;99.90
21772;DHT22;11047;47.904;8.110;2024-03-23T11:21:51;4.30;99.90
21772;DHT22;11047;47.904;8.110;2024-03-23T11:24:17;4.10;99.90
21772;DHT22;11047;47.904;8.110;2024-03-23T11:26:47;3.80;99.90
21772;DHT22;11047;47.904;8.110;2024-03-23T11:29:16;4.00;99.90
21772;DHT22;11047;47.904;8.110;2024-03-23T11:31:47;3.90;99.90
21772;DHT22;11047;47.904;8.110;2024-03-23T11:34:13;3.90;99.90
21772;DHT22;11047;47.904;8.110;2024-03-23T11:36:40;3.80;99.90
21772;DHT22;11047;47.904;8.110;2024-03-23T11:39:12;4.00;99.90
21772;DHT22;11047;47.904;8.110;2024-03-23T11:41:49;4.00;99.90
21772;DHT22;11047;47.904;8.110;2024-03-23T11:44:17;4.10;99.90
21772;DHT22;11047;47.904;8.110;2024-03-23T11:46:43;4.20;99.90
21772;DHT22;11047;47.904;8.110;2024-03-23T11:49:22;4.40;99.90
21772;DHT22;11047;47.904;8.110;2024-03-23T11:51:49;4.50;99.90
21772;DHT22;11047;47.904;8.110;2024-03-23T11:54:15;4.50;99.90
21772;DHT22;11047;47.904;8.110;2024-03-23T11:56:56;4.50;99.90
21772;DHT22;11047;47.904;8.110;2024-03-23T11:59:34;4.50;99.90
21772;DHT22;11047;47.904;8.110;2024-03-23T12:02:06;4.40;99.90
21772;DHT22;11047;47.904;8.110;2024-03-23T12:04:32;4.40;99.90
21772;DHT22;11047;47.904;8.110;2024-03-23T12:07:12;4.40;99.90
21772;DHT22;11047;47.904;8.110;2024-03-23T12:09:38;4.40;99.90
21772;DHT22;11047;47.904;8.110;2024-03-23T12:12:13;4.40;99.90
21772;DHT22;11047;47.904;8.110;2024-03-23T12:14:40;5.10;99.90
21772;DHT22;11047;47.904;8.110;2024-03-23T12:17:09;5.60;99.90
21772;DHT22;11047;47.904;8.110;2024-03-23T12:19:35;5.80;99.90
21772;DHT22;11047;47.904;8.110;2024-03-23T12:22:03;5.90;99.90
21772;DHT22;11047;47.904;8.110;2024-03-23T12:24:29;5.90;99.90
21772;DHT22;11047;47.904;8.110;2024-03-23T12:27:00;5.60;99.90
21772;DHT22;11047;47.904;8.110;2024-03-23T12:29:29;5.50;99.90
21772;DHT22;11047;47.904;8.110;2024-03-23T12:31:58;5.50;99.90
21772;DHT22;11047;47.904;8.110;2024-03-23T12:34:24;5.70;99.90
21772;DHT22;11047;47.904;8.110;2024-03-23T12:36:51;5.90;99.90
21772;DHT22;11047;47.904;8.110;2024-03-23T12:39:17;6.10;99.90
21772;DHT22;11047;47.904;8.110;2024-03-23T12:41:46;6.10;99.90
21772;DHT22;11047;47.904;8.110;2024-03-23T12:44:12;6.20;99.90
21772;DHT22;11047;47.904;8.110;2024-03-23T12:46:41;6.30;99.90
21772;DHT22;11047;47.904;8.110;2024-03-23T12:49:06;6.20;99.90
21772;DHT22;11047;47.904;8.110;2024-03-23T12:51:34;6.10;99.90
21772;DHT22;11047;47.904;8.110;2024-03-23T12:54:00;5.80;99.90
21772;DHT22;11047;47.904;8.110;2024-03-23T12:56:27;5.50;99.90
21772;DHT22;11047;47.904;8.110;2024-03-23T12:58:53;5.00;99.90
21772;DHT22;11047;47.904;8.110;2024-03-23T13:01:22;4.80;99.90
21772;DHT22;11047;47.904;8.110;2024-03-23T13:03:50;5.00;99.90
21772;DHT22;11047;47.904;8.110;2024-03-23T13:06:17;5.30;99.90
21772;DHT22;11047;47.904;8.110;2024-03-23T13:08:44;5.50;99.90
21772;DHT22;11047;47.904;8.110;2024-03-23T13:11:12;5.50;99.90
21772;DHT22;11047;47.904;8.110;2024-03-23T13:13:38;5.60;99.90
21772;DHT22;11047;47.904;8.110;2024-03-23T13:16:06;5.70;99.90
21772;DHT22;11047;47.904;8.110;2024-03-23T13:18:32;5.80;99.90
21772;DHT22;11047;47.904;8.110;2024-03-23T13:21:00;5.60;99.90
21772;DHT22;11047;47.904;8.110;2024-03-23T13:23:26;5.60;99.90
21772;DHT22;11047;47.904;8.110;2024-03-23T13:25:54;5.50;99.90
21772;DHT22;11047;47.904;8.110;2024-03-23T13:28:20;5.30;99.90
21772;DHT22;11047;47.904;8.110;2024-03-23T13:30:51;5.30;99.90
21772;DHT22;11047;47.904;8.110;2024-03-23T13:33:17;5.30;99.90
21772;DHT22;11047;47.904;8.110;2024-03-23T13:35:51;5.40;99.90
21772;DHT22;11047;47.904;8.110;2024-03-23T13:38:18;5.60;99.90
21772;DHT22;11047;47.904;8.110;2024-03-23T13:40:52;5.70;99.90
21772;DHT22;11047;47.904;8.110;2024-03-23T13:43:18;6.00;99.90
21772;DHT22;11047;47.904;8.110;2024-03-23T13:45:46;6.20;99.90
21772;DHT22;11047;47.904;8.110;2024-03-23T13:48:12;6.40;99.90
21772;DHT22;11047;47.904;8.110;2024-03-23T13:50:39;6.60;99.90
21772;DHT22;11047;47.904;8.110;2024-03-23T13:53:05;6.80;99.90
21772;DHT22;11047;47.904;8.110;2024-03-23T13:55:35;6.70;99.90
21772;DHT22;11047;47.904;8.110;2024-03-23T13:58:01;6.90;99.90
21772;DHT22;11047;47.904;8.110;2024-03-23T14:00:28;6.80;99.90
21772;DHT22;11047;47.904;8.110;2024-03-23T14:02:54;7.40;99.90
21772;DHT22;11047;47.904;8.110;2024-03-23T14:05:21;6.70;99.90
21772;DHT22;11047;47.904;8.110;2024-03-23T14:07:46;6.70;99.90
21772;DHT22;11047;47.904;8.110;2024-03-23T14:10:14;7.30;99.90
21772;DHT22;11047;47.904;8.110;2024-03-23T14:12:42;6.90;99.90
21772;DHT22;11047;47.904;8.110;2024-03-23T14:15:09;7.10;99.90
21772;DHT22;11047;47.904;8.110;2024-03-23T14:17:34;7.20;99.90
21772;DHT22;11047;47.904;8.110;2024-03-23T14:20:01;7.40;99.90
21772;DHT22;11047;47.904;8.110;2024-03-23T14:22:30;7.40;99.90
21772;DHT22;11047;47.904;8.110;2024-03-23T14:24:57;7.30;99.90
21772;DHT22;11047;47.904;8.110;2024-03-23T14:27:24;7.30;99.90
21772;DHT22;11047;47.904;8.110;2024-03-23T14:29:52;7.90;99.90
21772;DHT22;11047;47.904;8.110;2024-03-23T14:32:18;7.10;99.90
21772;DHT22;11047;47.904;8.110;2024-03-23T14:34:45;6.90;99.90
21772;DHT22;11047;47.904;8.110;2024-03-23T14:37:10;6.60;99.90
21772;DHT22;11047;47.904;8.110;2024-03-23T14:39:37;6.40;99.90
21772;DHT22;11047;47.904;8.110;2024-03-23T14:42:05;6.40;99.90
21772;DHT22;11047;47.904;8.110;2024-03-23T14:44:34;6.30;99.90
21772;DHT22;11047;47.904;8.110;2024-03-23T14:47:01;6.20;99.90
21772;DHT22;11047;47.904;8.110;2024-03-23T14:49:28;6.10;99.90
21772;DHT22;11047;47.904;8.110;2024-03-23T14:51:53;6.00;99.90
21772;DHT22;11047;47.904;8.110;2024-03-23T14:54:20;6.00;99.90
21772;DHT22;11047;47.904;8.110;2024-03-23T14:56:46;6.00;99.90
21772;DHT22;11047;47.904;8.110;2024-03-23T14:59:14;5.80;99.90
21772;DHT22;11047;47.904;8.110;2024-03-23T15:01:40;5.70;99.90
21772;DHT22;11047;47.904;8.110;2024-03-23T15:04:08;5.60;99.90
21772;DHT22;11047;47.904;8.110;2024-03-23T15:06:34;5.50;99.90
21772;DHT22;11047;47.904;8.110;2024-03-23T15:09:01;5.40;99.90
21772;DHT22;11047;47.904;8.110;2024-03-23T15:11:27;5.40;99.90
21772;DHT22;11047;47.904;8.110;2024-03-23T15:13:54;5.30;99.90
21772;DHT22;11047;47.904;8.110;2024-03-23T15:16:20;5.20;99.90
21772;DHT22;11047;47.904;8.110;2024-03-23T15:18:47;5.10;99.90
21772;DHT22;11047;47.904;8.110;2024-03-23T15:21:15;5.00;99.90
21772;DHT22;11047;47.904;8.110;2024-03-23T15:23:46;4.90;99.90
21772;DHT22;11047;47.904;8.110;2024-03-23T15:26:12;4.80;99.90
21772;DHT22;11047;47.904;8.110;2024-03-23T15:28:38;4.80;99.90
21772;DHT22;11047;47.904;8.110;2024-03-23T15:31:07;4.90;99.90
21772;DHT22;11047;47.904;8.110;2024-03-23T15:33:35;4.90;99.90
21772;DHT22;11047;47.904;8.110;2024-03-23T15:36:01;5.00;99.90
21772;DHT22;11047;47.904;8.110;2024-03-23T15:38:31;5.10;99.90
21772;DHT22;11047;47.904;8.110;2024-03-23T15:40:57;5.20;99.90
21772;DHT22;11047;47.904;8.110;2024-03-23T15:43:24;5.10;99.90
21772;DHT22;11047;47.904;8.110;2024-03-23T15:45:56;5.20;99.90
21772;DHT22;11047;47.904;8.110;2024-03-23T15:48:23;5.20;99.90
21772;DHT22;11047;47.904;8.110;2024-03-23T15:50:52;5.20;99.90
21772;DHT22;11047;47.904;8.110;2024-03-23T15:53:19;5.10;99.90
21772;DHT22;11047;47.904;8.110;2024-03-23T15:55:53;5.00;99.90
21772;DHT22;11047;47.904;8.110;2024-03-23T15:58:20;5.00;99.90
21772;DHT22;11047;47.904;8.110;2024-03-23T16:00:46;4.90;99.90
21772;DHT22;11047;47.904;8.110;2024-03-23T16:03:13;4.90;99.90
21772;DHT22;11047;47.904;8.110;2024-03-23T16:05:38;4.80;99.90
21772;DHT22;11047;47.904;8.110;2024-03-23T16:08:06;4.70;99.90
21772;DHT22;11047;47.904;8.110;2024-03-23T16:10:34;4.70;99.90
21772;DHT22;11047;47.904;8.110;2024-03-23T16:13:02;4.60;99.90
21772;DHT22;11047;47.904;8.110;2024-03-23T16:28:44;4.30;99.90
21772;DHT22;11047;47.904;8.110;2024-03-23T16:31:14;4.10;99.90
21772;DHT22;11047;47.904;8.110;2024-03-23T16:33:41;3.90;99.90
21772;DHT22;11047;47.904;8.110;2024-03-23T16:36:09;3.60;99.90
21772;DHT22;11047;47.904;8.110;2024-03-23T16:38:36;3.20;99.90
21772;DHT22;11047;47.904;8.110;2024-03-23T16:41:04;3.00;99.90
21772;DHT22;11047;47.904;8.110;2024-03-23T16:43:32;2.80;99.90
21772;DHT22;11047;47.904;8.110;2024-03-23T16:46:01;2.80;99.90
21772;DHT22;11047;47.904;8.110;2024-03-23T16:48:29;2.80;99.90
21772;DHT22;11047;47.904;8.110;2024-03-23T16:50:57;2.70;99.90